Time;durP1;ratioP1;P1;durP2;ratioP2;P2;SDS_P1;SDS_P2;PMS_P1;PMS_P2;Temp;Humidity;BMP_temperature;BMP_pressure;BME280_temperature;BME280_humidity;BME280_pressure;Samples;Min_cycle;Max_cycle;Signal;HPM_P1;HPM_P2
2021/01/11 00:00:53;;;;;;;56.38;33.78;;;1.90;92.70;;;;;;5066597;28;20508;-76
2021/01/11 00:03:19;;;;;;;49.65;31.88;;;1.80;92.60;;;;;;5087438;28;20020;-76
2021/01/11 00:05:45;;;;;;;60.30;35.20;;;1.80;92.60;;;;;;5077316;28;20133;-76
2021/01/11 00:08:10;;;;;;;69.22;38.63;;;1.70;92.70;;;;;;5081651;28;20066;-76
2021/01/11 00:10:36;;;;;;;59.20;34.10;;;1.70;92.70;;;;;;5091562;28;20047;-76
2021/01/11 00:13:02;;;;;;;79.03;42.45;;;1.70;92.80;;;;;;5086528;28;20054;-76
2021/01/11 00:15:28;;;;;;;62.85;37.65;;;1.70;92.80;;;;;;5112620;28;20425;-76
2021/01/11 00:17:54;;;;;;;62.50;36.47;;;1.70;92.80;;;;;;5093536;28;20081;-76
2021/01/11 00:20:19;;;;;;;75.70;40.50;;;1.70;92.80;;;;;;5075370;28;20038;-76
2021/01/11 00:22:45;;;;;;;74.97;42.90;;;1.80;92.80;;;;;;5087077;28;20078;-76
2021/01/11 00:25:12;;;;;;;64.22;39.00;;;1.80;92.80;;;;;;5090577;28;20020;-75
2021/01/11 00:27:38;;;;;;;70.45;39.85;;;1.80;92.80;;;;;;5080590;28;20012;-75
2021/01/11 00:30:08;;;;;;;57.08;35.92;;;1.80;92.80;;;;;;5078601;28;20017;-75
2021/01/11 00:32:34;;;;;;;64.68;38.20;;;1.80;92.80;;;;;;5080011;28;20169;-75
2021/01/11 00:35:01;;;;;;;76.00;42.35;;;1.80;92.80;;;;;;5084112;28;20434;-76
2021/01/11 00:37:26;;;;;;;77.50;43.38;;;1.80;92.70;;;;;;5082759;28;20089;-76
2021/01/11 00:39:53;;;;;;;73.72;41.33;;;1.80;92.80;;;;;;5082668;28;20052;-75
2021/01/11 00:42:18;;;;;;;64.95;39.65;;;1.80;92.80;;;;;;5071226;28;20381;-75
2021/01/11 00:44:44;;;;;;;68.40;38.00;;;1.70;92.80;;;;;;5079015;28;20031;-76
2021/01/11 00:47:10;;;;;;;73.05;41.00;;;1.80;92.90;;;;;;5079859;28;22077;-76
2021/01/11 00:49:36;;;;;;;74.78;43.47;;;1.80;92.80;;;;;;5082128;28;20039;-76
2021/01/11 00:52:03;;;;;;;69.13;38.83;;;1.80;92.80;;;;;;5071193;28;20087;-76
2021/01/11 00:54:29;;;;;;;69.70;39.50;;;1.80;92.80;;;;;;5078108;28;20100;-76
2021/01/11 00:56:55;;;;;;;65.65;37.83;;;1.80;92.90;;;;;;5070417;28;20115;-76
2021/01/11 00:59:20;;;;;;;56.28;34.03;;;1.80;92.80;;;;;;5083712;28;20032;-76
2021/01/11 01:02:00;;;;;;;57.80;33.97;;;1.80;92.80;;;;;;5085192;28;20028;-76
2021/01/11 01:04:26;;;;;;;56.30;32.97;;;1.80;92.80;;;;;;5081955;28;20025;-76
2021/01/11 01:06:52;;;;;;;55.72;35.25;;;1.80;92.80;;;;;;5084321;28;20047;-76
2021/01/11 01:09:17;;;;;;;60.42;34.58;;;1.80;92.80;;;;;;5085420;28;20025;-75
2021/01/11 01:11:43;;;;;;;58.40;34.10;;;1.90;92.80;;;;;;5082327;28;20058;-75
2021/01/11 01:14:09;;;;;;;56.40;32.55;;;1.90;92.70;;;;;;5083141;28;20024;-76
2021/01/11 01:16:35;;;;;;;54.17;33.47;;;1.90;92.70;;;;;;5087104;28;20055;-76
2021/01/11 01:19:02;;;;;;;56.70;33.83;;;1.90;92.70;;;;;;5080577;28;20016;-75
2021/01/11 01:21:28;;;;;;;55.85;32.20;;;1.90;92.70;;;;;;5081319;28;20052;-75
2021/01/11 01:23:54;;;;;;;57.58;34.28;;;1.90;92.70;;;;;;5087319;28;20028;-76
2021/01/11 01:26:19;;;;;;;62.50;35.45;;;1.90;92.70;;;;;;5083310;28;20028;-75
2021/01/11 01:28:45;;;;;;;56.97;34.53;;;1.90;92.70;;;;;;5086851;28;20058;-75
2021/01/11 01:31:11;;;;;;;58.53;35.00;;;1.90;92.90;;;;;;5082869;28;20060;-76
2021/01/11 01:33:37;;;;;;;60.25;35.30;;;1.90;92.70;;;;;;5083711;28;20502;-76
2021/01/11 01:36:02;;;;;;;63.80;37.38;;;1.90;92.60;;;;;;5091475;28;20055;-75
2021/01/11 01:38:28;;;;;;;73.93;39.80;;;2.00;92.70;;;;;;5087435;28;20028;-75
2021/01/11 01:40:54;;;;;;;71.90;40.53;;;1.90;92.60;;;;;;5083199;28;20097;-75
2021/01/11 01:43:20;;;;;;;61.70;35.88;;;1.90;92.40;;;;;;5065343;28;20029;-75
2021/01/11 01:45:46;;;;;;;65.13;38.22;;;1.90;92.50;;;;;;5085548;28;20115;-75
2021/01/11 01:48:12;;;;;;;63.78;36.42;;;1.90;92.60;;;;;;5092136;28;20035;-76
2021/01/11 01:50:40;;;;;;;59.65;35.55;;;1.90;92.80;;;;;;5083552;28;20076;-75
2021/01/11 01:53:06;;;;;;;65.32;37.30;;;1.90;92.50;;;;;;5082248;28;20020;-76
2021/01/11 01:55:32;;;;;;;61.80;36.25;;;2.00;92.50;;;;;;5083975;28;20051;-77
2021/01/11 01:58:02;;;;;;;63.88;38.33;;;1.90;92.40;;;;;;5080156;28;20031;-77
2021/01/11 02:00:28;;;;;;;57.80;34.80;;;1.90;92.40;;;;;;5085912;28;20024;-77
2021/01/11 02:02:53;;;;;;;55.08;33.88;;;1.90;92.40;;;;;;5084390;28;20114;-77
2021/01/11 02:05:19;;;;;;;76.28;40.90;;;1.90;92.50;;;;;;5085697;28;20035;-77
2021/01/11 02:08:14;;;;;;;62.17;36.40;;;1.90;92.50;;;;;;5080646;28;20028;-77
2021/01/11 02:11:04;;;;;;;60.38;35.15;;;1.80;92.50;;;;;;5077355;28;20064;-77
2021/01/11 02:13:30;;;;;;;57.50;33.63;;;1.80;92.60;;;;;;5083487;28;20511;-78
2021/01/11 02:16:07;;;;;;;59.72;33.60;;;1.90;92.60;;;;;;5082170;28;20120;-77
2021/01/11 02:18:54;;;;;;;62.60;34.28;;;1.80;92.60;;;;;;5100501;28;20065;-77
2021/01/11 02:21:35;;;;;;;57.15;31.10;;;1.90;92.90;;;;;;5079713;28;20778;-77
2021/01/11 02:24:18;;;;;;;52.47;30.23;;;1.90;92.70;;;;;;5084887;28;20025;-78
2021/01/11 02:26:59;;;;;;;61.78;31.00;;;1.90;92.70;;;;;;5078126;28;20376;-78
2021/01/11 02:29:53;;;;;;;51.70;29.52;;;1.90;92.70;;;;;;5086134;28;20024;-77
2021/01/11 02:32:20;;;;;;;57.03;30.85;;;1.90;92.70;;;;;;5090755;28;20025;-77
2021/01/11 02:34:48;;;;;;;56.67;29.20;;;1.90;92.70;;;;;;5094074;28;20028;-78
2021/01/11 02:37:15;;;;;;;57.55;28.90;;;1.90;92.70;;;;;;5088421;28;20033;-77
2021/01/11 02:39:41;;;;;;;54.20;28.30;;;1.90;92.70;;;;;;5083113;28;20033;-78
2021/01/11 02:42:06;;;;;;;55.05;28.88;;;1.90;92.70;;;;;;5085023;28;20029;-77
2021/01/11 02:44:32;;;;;;;55.50;27.83;;;1.90;92.80;;;;;;5059565;28;20050;-77
2021/01/11 02:46:58;;;;;;;51.17;25.85;;;1.90;92.80;;;;;;5093290;28;20040;-77
2021/01/11 02:49:26;;;;;;;52.22;26.08;;;1.90;93.10;;;;;;5085817;28;20107;-77
2021/01/11 02:52:36;;;;;;;79.43;32.55;;;1.90;92.80;;;;;;5074777;28;20017;-77
2021/01/11 02:55:11;;;;;;;63.33;28.52;;;1.90;92.90;;;;;;5072465;28;20519;-77
2021/01/11 02:58:01;;;;;;;56.38;26.90;;;1.90;92.90;;;;;;5093591;28;20024;-78
2021/01/11 03:00:31;;;;;;;63.83;26.90;;;1.90;93.00;;;;;;5104205;28;20060;-77
2021/01/11 03:02:58;;;;;;;57.47;24.98;;;1.80;93.00;;;;;;5094398;28;20101;-77
2021/01/11 03:05:24;;;;;;;56.13;26.23;;;1.90;93.10;;;;;;5085166;28;20051;-77
2021/01/11 03:07:57;;;;;;;77.10;30.25;;;1.90;93.10;;;;;;5080817;28;20073;-77
2021/01/11 03:10:22;;;;;;;64.80;29.45;;;1.90;93.10;;;;;;5077209;28;20540;-77
2021/01/11 03:12:48;;;;;;;59.25;26.95;;;1.90;93.10;;;;;;5075857;28;20128;-77
2021/01/11 03:15:15;;;;;;;79.60;29.60;;;2.00;93.10;;;;;;5056523;28;20040;-77
2021/01/11 03:17:41;;;;;;;71.63;30.20;;;2.00;93.10;;;;;;5087058;28;20552;-77
2021/01/11 03:20:08;;;;;;;75.78;30.60;;;2.00;93.10;;;;;;5074161;28;20028;-77
2021/01/11 03:22:34;;;;;;;77.82;32.30;;;2.00;93.10;;;;;;5077380;28;20036;-77
2021/01/11 03:24:59;;;;;;;72.32;32.08;;;2.00;93.10;;;;;;5070638;28;20026;-77
2021/01/11 03:27:25;;;;;;;70.60;31.42;;;2.00;93.10;;;;;;5084439;28;20028;-78
2021/01/11 03:29:50;;;;;;;71.38;32.28;;;2.00;93.10;;;;;;5091544;28;20047;-78
2021/01/11 03:32:16;;;;;;;81.20;32.88;;;2.00;93.20;;;;;;5075879;28;20139;-77
2021/01/11 03:34:42;;;;;;;84.45;36.83;;;2.00;93.10;;;;;;5091198;28;20020;-77
2021/01/11 03:37:07;;;;;;;84.78;36.38;;;2.10;93.20;;;;;;5084987;28;20542;-77
2021/01/11 03:39:33;;;;;;;82.03;35.65;;;2.10;93.20;;;;;;5093946;28;20024;-77
2021/01/11 03:42:00;;;;;;;75.07;35.75;;;2.10;93.20;;;;;;5082506;28;20107;-77
2021/01/11 03:44:25;;;;;;;77.90;37.92;;;2.10;93.20;;;;;;5091936;28;20487;-77
2021/01/11 03:46:51;;;;;;;89.35;39.10;;;2.10;93.20;;;;;;5085885;28;20051;-78
2021/01/11 03:49:16;;;;;;;84.65;38.53;;;2.10;93.20;;;;;;5083145;28;20085;-77
2021/01/11 03:51:42;;;;;;;83.07;38.63;;;2.10;93.10;;;;;;5072541;28;20158;-77
2021/01/11 03:54:08;;;;;;;78.47;38.35;;;2.10;93.10;;;;;;5089163;28;20358;-77
2021/01/11 03:56:33;;;;;;;72.38;37.67;;;2.10;93.10;;;;;;5072162;28;20099;-77
2021/01/11 03:59:00;;;;;;;69.78;35.90;;;2.10;93.10;;;;;;5083818;28;20051;-77
2021/01/11 04:01:27;;;;;;;76.32;37.97;;;2.20;93.20;;;;;;5079560;28;20519;-77
2021/01/11 04:03:53;;;;;;;80.82;38.88;;;2.20;93.10;;;;;;5081847;28;20035;-77
2021/01/11 04:06:22;;;;;;;79.85;39.70;;;2.20;93.10;;;;;;5085014;28;20051;-77
2021/01/11 04:08:48;;;;;;;71.13;36.42;;;2.10;93.10;;;;;;5083532;28;20016;-77
2021/01/11 04:11:17;;;;;;;66.75;35.47;;;2.20;93.10;;;;;;5080998;28;20060;-77
2021/01/11 04:13:43;;;;;;;75.65;37.50;;;2.20;93.10;;;;;;5081876;28;20020;-77
2021/01/11 04:16:09;;;;;;;65.32;35.10;;;2.20;93.10;;;;;;5079158;28;20089;-77
2021/01/11 04:18:35;;;;;;;63.75;34.78;;;2.20;93.10;;;;;;5080084;28;20028;-77
2021/01/11 04:21:01;;;;;;;67.05;37.75;;;2.20;93.30;;;;;;5071300;28;20039;-77
2021/01/11 04:23:26;;;;;;;57.95;33.60;;;2.20;93.00;;;;;;5082582;28;20037;-77
2021/01/11 04:25:52;;;;;;;55.53;31.88;;;2.20;93.00;;;;;;5073894;28;20069;-77
2021/01/11 04:28:17;;;;;;;64.07;36.63;;;2.20;93.00;;;;;;5077308;28;20036;-77
2021/01/11 04:30:43;;;;;;;60.58;32.55;;;2.20;93.00;;;;;;5075707;28;20115;-77
2021/01/11 04:33:09;;;;;;;56.03;32.90;;;2.20;93.00;;;;;;5088918;28;20039;-77
2021/01/11 04:35:34;;;;;;;54.50;32.33;;;2.20;93.00;;;;;;5072366;28;20504;-77
2021/01/11 04:38:00;;;;;;;49.03;29.20;;;2.20;93.00;;;;;;5075919;28;20085;-77
2021/01/11 04:40:25;;;;;;;52.80;30.95;;;2.30;93.00;;;;;;5068470;28;20032;-77
2021/01/11 04:43:04;;;;;;;51.28;28.98;;;2.20;92.90;;;;;;5079091;28;20042;-77
2021/01/11 04:45:31;;;;;;;51.17;31.02;;;2.30;92.90;;;;;;5088487;28;20023;-77
2021/01/11 04:47:58;;;;;;;50.10;30.50;;;2.30;92.90;;;;;;5085377;28;20024;-77
2021/01/11 04:50:25;;;;;;;50.63;31.27;;;2.30;92.90;;;;;;5078822;28;20045;-77
2021/01/11 04:52:51;;;;;;;50.45;30.17;;;2.30;92.90;;;;;;5086215;28;20076;-77
2021/01/11 04:55:18;;;;;;;49.65;29.80;;;2.30;92.90;;;;;;5080897;28;20036;-77
2021/01/11 04:57:57;;;;;;;51.83;31.23;;;2.30;93.10;;;;;;5083080;28;20058;-77
2021/01/11 05:00:24;;;;;;;;;;;2.30;92.80;;;;;;5082161;28;20075;-77
2021/01/11 05:03:06;;;;;;;52.05;31.83;;;2.30;92.80;;;;;;5080988;28;19915;-77
2021/01/11 05:05:33;;;;;;;53.33;29.85;;;2.30;92.80;;;;;;5077134;28;20481;-77
2021/01/11 05:07:59;;;;;;;57.50;32.97;;;2.30;92.80;;;;;;5082514;28;20024;-77
2021/01/11 05:10:27;;;;;;;56.72;33.65;;;2.30;92.80;;;;;;5077964;28;20028;-77
2021/01/11 05:13:01;;;;;;;55.20;32.67;;;2.30;92.80;;;;;;5073836;28;20117;-77
2021/01/11 05:15:30;;;;;;;52.28;31.10;;;2.20;92.80;;;;;;5091273;28;20086;-77
2021/01/11 05:17:56;;;;;;;40.65;23.80;;;2.30;92.80;;;;;;5077910;28;20054;-78
2021/01/11 05:20:25;;;;;;;56.28;33.75;;;2.30;92.80;;;;;;5074146;28;20040;-78
2021/01/11 05:22:53;;;;;;;57.67;33.10;;;2.30;92.90;;;;;;5092395;28;20366;-77
2021/01/11 05:25:24;;;;;;;58.20;33.03;;;2.30;92.90;;;;;;5083881;28;20024;-77
2021/01/11 05:28:08;;;;;;;63.28;35.05;;;2.30;92.90;;;;;;5083738;28;20366;-77
2021/01/11 05:30:37;;;;;;;60.20;32.50;;;2.30;92.80;;;;;;5072055;28;20070;-78
2021/01/11 05:33:04;;;;;;;59.50;33.03;;;2.30;92.80;;;;;;5080948;28;20052;-77
2021/01/11 05:35:30;;;;;;;60.65;32.40;;;2.30;92.70;;;;;;5081299;28;20028;-77
2021/01/11 05:37:56;;;;;;;57.33;33.17;;;2.30;92.70;;;;;;5070800;28;20043;-77
2021/01/11 05:40:29;;;;;;;54.20;32.58;;;2.30;92.70;;;;;;5074092;28;20032;-77
2021/01/11 05:42:56;;;;;;;60.50;32.90;;;2.40;92.70;;;;;;5071484;28;20031;-77
2021/01/11 05:45:34;;;;;;;54.25;31.83;;;2.40;92.90;;;;;;5075519;28;20017;-77
2021/01/11 05:48:12;;;;;;;54.60;31.58;;;2.40;92.60;;;;;;5067805;28;20497;-77
2021/01/11 05:50:41;;;;;;;57.13;32.35;;;2.40;92.60;;;;;;5093811;28;20024;-78
2021/01/11 05:53:23;;;;;;;58.97;32.42;;;2.40;92.60;;;;;;5077763;28;20135;-77
2021/01/11 05:55:54;;;;;;;53.08;31.73;;;2.40;92.60;;;;;;5077137;28;20437;-77
2021/01/11 05:58:20;;;;;;;56.00;31.17;;;2.40;92.60;;;;;;5096202;28;20031;-78
2021/01/11 06:00:46;;;;;;;53.67;32.33;;;2.40;92.60;;;;;;5077610;28;20492;-77
2021/01/11 06:03:13;;;;;;;60.22;33.00;;;2.40;92.60;;;;;;5090103;28;20028;-77
2021/01/11 06:05:40;;;;;;;60.53;32.85;;;2.40;92.60;;;;;;5095868;28;20020;-77
2021/01/11 06:08:08;;;;;;;62.45;34.22;;;2.40;92.50;;;;;;5078249;28;20021;-77
2021/01/11 06:10:35;;;;;;;53.45;31.00;;;2.40;92.60;;;;;;5096279;28;20387;-77
2021/01/11 06:13:05;;;;;;;54.53;32.40;;;2.40;92.60;;;;;;5094873;28;20477;-77
2021/01/11 06:15:33;;;;;;;59.40;33.35;;;2.40;92.60;;;;;;5095054;28;20519;-77
2021/01/11 06:17:59;;;;;;;56.75;33.35;;;2.40;92.60;;;;;;5096101;28;20036;-77
2021/01/11 06:20:32;;;;;;;56.60;33.35;;;2.40;92.60;;;;;;5095231;28;20423;-77
2021/01/11 06:22:57;;;;;;;50.67;30.95;;;2.40;92.50;;;;;;5078131;28;20052;-78
2021/01/11 06:25:28;;;;;;;52.50;31.75;;;2.40;92.60;;;;;;5094600;28;20124;-78
2021/01/11 06:27:58;;;;;;;55.22;32.80;;;2.40;92.50;;;;;;5096004;28;20447;-77
2021/01/11 06:30:33;;;;;;;49.75;30.77;;;2.40;92.50;;;;;;5083929;28;20059;-78
2021/01/11 06:33:10;;;;;;;49.60;29.90;;;2.40;92.50;;;;;;5075739;28;20042;-78
2021/01/11 06:35:37;;;;;;;57.22;33.53;;;2.40;92.60;;;;;;5084762;28;20031;-78
2021/01/11 06:38:07;;;;;;;63.00;34.33;;;2.50;92.50;;;;;;5095665;28;20028;-78
2021/01/11 06:40:33;;;;;;;52.97;31.90;;;2.50;92.50;;;;;;5095837;28;20425;-77
2021/01/11 06:43:01;;;;;;;49.85;31.98;;;2.50;92.50;;;;;;5094188;28;20362;-77
2021/01/11 06:45:37;;;;;;;51.35;31.08;;;2.50;92.50;;;;;;5087169;28;20025;-78
2021/01/11 06:48:08;;;;;;;55.72;32.22;;;2.50;92.50;;;;;;5075498;28;20422;-78
2021/01/11 06:50:34;;;;;;;54.35;32.15;;;2.50;92.50;;;;;;5081499;28;20055;-77
2021/01/11 06:53:02;;;;;;;51.53;31.58;;;2.50;92.50;;;;;;5090812;28;20381;-77
2021/01/11 06:55:28;;;;;;;52.90;32.85;;;2.50;92.50;;;;;;5074802;28;20028;-78
2021/01/11 06:57:59;;;;;;;47.67;29.88;;;2.50;92.50;;;;;;5072993;28;20064;-78
2021/01/11 07:00:40;;;;;;;53.35;32.33;;;2.50;92.40;;;;;;5073830;28;20028;-77
2021/01/11 07:03:07;;;;;;;50.75;29.80;;;2.50;92.50;;;;;;5073904;28;20381;-77
2021/01/11 07:05:33;;;;;;;53.70;31.63;;;2.50;92.50;;;;;;5073795;28;20024;-78
2021/01/11 07:08:09;;;;;;;53.80;33.22;;;2.60;92.50;;;;;;5073671;28;20111;-77
2021/01/11 07:10:36;;;;;;;56.78;31.58;;;2.50;92.50;;;;;;5073213;28;20031;-77
2021/01/11 07:13:17;;;;;;;53.95;32.10;;;2.50;92.50;;;;;;5073653;28;20366;-77
2021/01/11 07:15:43;;;;;;;53.45;31.85;;;2.50;92.50;;;;;;5073583;28;20024;-77
2021/01/11 07:18:09;;;;;;;49.92;31.92;;;2.50;92.50;;;;;;5056891;28;20029;-77
2021/01/11 07:20:42;;;;;;;54.17;31.48;;;2.50;92.50;;;;;;5087032;28;20039;-77
2021/01/11 07:23:08;;;;;;;49.83;30.63;;;2.50;92.60;;;;;;5094622;28;20122;-78
2021/01/11 07:25:34;;;;;;;55.28;30.95;;;2.50;92.60;;;;;;5093710;28;20042;-78
2021/01/11 07:28:01;;;;;;;54.17;31.48;;;2.50;92.60;;;;;;5094943;28;20103;-77
2021/01/11 07:30:27;;;;;;;55.20;30.90;;;2.50;92.50;;;;;;5094806;28;20028;-75
2021/01/11 07:32:53;;;;;;;46.05;29.85;;;2.50;92.60;;;;;;5095246;28;20731;-75
2021/01/11 07:35:19;;;;;;;50.97;31.20;;;2.50;92.60;;;;;;5076731;28;20483;-75
2021/01/11 07:37:45;;;;;;;52.35;28.52;;;2.50;92.60;;;;;;5074722;28;20028;-75
2021/01/11 07:40:11;;;;;;;47.97;29.90;;;2.50;92.60;;;;;;5074688;28;20476;-75
2021/01/11 07:42:38;;;;;;;49.28;29.08;;;2.60;92.60;;;;;;5073084;28;20542;-75
2021/01/11 07:45:11;;;;;;;50.17;31.30;;;2.60;92.60;;;;;;5074245;28;20020;-75
2021/01/11 07:47:38;;;;;;;49.58;28.92;;;2.60;92.60;;;;;;5074949;28;20028;-75
2021/01/11 07:50:04;;;;;;;52.15;30.70;;;2.60;92.50;;;;;;5094375;28;20032;-76
2021/01/11 07:52:30;;;;;;;53.38;31.33;;;2.60;92.50;;;;;;5094364;28;20582;-76
2021/01/11 07:55:01;;;;;;;51.90;31.17;;;2.60;92.50;;;;;;5093695;28;20024;-76
2021/01/11 07:57:28;;;;;;;56.63;33.05;;;2.50;92.50;;;;;;5094224;28;20125;-76
2021/01/11 08:00:20;;;;;;;60.40;33.42;;;2.50;92.60;;;;;;5092788;28;20043;-76
2021/01/11 08:02:46;;;;;;;56.92;32.33;;;2.50;92.70;;;;;;5089695;28;20036;-76
2021/01/11 08:05:25;;;;;;;57.33;32.85;;;2.50;92.60;;;;;;5094018;28;20025;-75
2021/01/11 08:08:02;;;;;;;52.88;30.13;;;2.50;92.60;;;;;;5076051;28;20028;-76
2021/01/11 08:10:28;;;;;;;61.25;33.28;;;2.50;92.60;;;;;;5092632;28;20036;-76
2021/01/11 08:13:06;;;;;;;51.50;31.50;;;2.50;92.60;;;;;;5075723;28;20130;-76
2021/01/11 08:15:31;;;;;;;54.90;31.20;;;2.50;92.60;;;;;;5091033;28;20048;-76
2021/01/11 08:17:57;;;;;;;50.70;30.70;;;2.50;92.60;;;;;;5091332;28;20109;-76
2021/01/11 08:20:24;;;;;;;52.53;31.73;;;2.50;92.60;;;;;;5092300;28;20024;-76
2021/01/11 08:22:50;;;;;;;57.42;33.55;;;2.60;92.60;;;;;;5091834;28;20076;-76
2021/01/11 08:25:16;;;;;;;60.03;34.42;;;2.60;92.60;;;;;;5075735;28;20059;-76
2021/01/11 08:27:46;;;;;;;58.03;32.97;;;2.50;92.60;;;;;;5090720;28;20032;-75
2021/01/11 08:30:15;;;;;;;56.03;31.65;;;2.60;92.70;;;;;;5093604;28;20650;-75
2021/01/11 08:32:41;;;;;;;57.53;31.45;;;2.60;92.70;;;;;;5092746;28;20081;-76
2021/01/11 08:35:15;;;;;;;53.58;31.73;;;2.60;92.70;;;;;;5092370;28;20028;-76
2021/01/11 08:37:41;;;;;;;55.25;32.17;;;2.60;92.70;;;;;;5092415;28;20427;-76
2021/01/11 08:40:19;;;;;;;52.00;30.25;;;2.60;92.60;;;;;;5092200;28;20062;-76
2021/01/11 08:42:45;;;;;;;54.70;32.70;;;2.60;92.60;;;;;;5092367;28;20016;-75
2021/01/11 08:45:33;;;;;;;51.97;30.60;;;2.60;92.60;;;;;;5092071;28;20551;-76
2021/01/11 08:48:08;;;;;;;56.40;32.78;;;2.60;92.60;;;;;;5093219;28;20035;-75
2021/01/11 08:50:40;;;;;;;54.58;32.38;;;2.60;92.60;;;;;;5093105;28;20024;-76
2021/01/11 08:53:25;;;;;;;62.60;35.08;;;2.60;92.60;;;;;;5092275;28;20027;-76
2021/01/11 08:56:06;;;;;;;53.20;32.67;;;2.60;92.60;;;;;;5093353;28;20024;-76
2021/01/11 08:58:33;;;;;;;57.33;32.42;;;2.50;92.60;;;;;;5093582;28;20020;-76
2021/01/11 09:01:17;;;;;;;61.47;35.35;;;2.50;92.60;;;;;;5093351;28;20039;-76
2021/01/11 09:03:55;;;;;;;53.08;31.52;;;2.50;92.60;;;;;;5093272;28;20069;-76
2021/01/11 09:06:37;;;;;;;47.95;27.50;;;2.50;92.70;;;;;;5080197;28;20065;-76
2021/01/11 09:09:08;;;;;;;58.28;33.33;;;2.50;92.70;;;;;;5073280;28;20100;-76
2021/01/11 09:11:34;;;;;;;58.58;33.00;;;2.60;92.80;;;;;;5072003;28;20031;-76
2021/01/11 09:14:08;;;;;;;57.80;33.60;;;2.50;92.70;;;;;;5092065;28;20361;-76
2021/01/11 09:16:34;;;;;;;57.05;33.70;;;2.60;92.70;;;;;;5091817;28;20040;-76
2021/01/11 09:19:10;;;;;;;58.08;33.35;;;2.60;92.70;;;;;;5093277;28;20035;-76
2021/01/11 09:21:39;;;;;;;65.25;34.95;;;2.60;92.80;;;;;;5095284;28;20044;-76
2021/01/11 09:24:05;;;;;;;66.47;37.22;;;2.60;92.70;;;;;;5095453;28;20028;-75
2021/01/11 09:26:35;;;;;;;63.08;35.53;;;2.70;92.80;;;;;;5095435;28;20016;-75
2021/01/11 09:29:01;;;;;;;54.60;32.10;;;2.60;92.80;;;;;;5078539;28;20086;-75
2021/01/11 09:31:27;;;;;;;59.40;32.25;;;2.70;92.80;;;;;;5096286;28;20036;-76
2021/01/11 09:33:53;;;;;;;63.78;35.30;;;2.70;92.80;;;;;;5096377;28;20510;-76
2021/01/11 09:36:22;;;;;;;66.15;36.17;;;2.70;92.80;;;;;;5097420;28;20334;-76
2021/01/11 09:38:48;;;;;;;73.35;38.13;;;2.80;93.10;;;;;;5095782;28;20050;-77
2021/01/11 09:41:15;;;;;;;59.22;33.63;;;2.70;92.80;;;;;;5096543;28;20096;-76
2021/01/11 09:43:41;;;;;;;52.47;30.98;;;2.70;92.80;;;;;;5097055;28;20454;-76
2021/01/11 09:46:07;;;;;;;57.40;32.92;;;2.70;92.80;;;;;;5095911;28;20023;-76
2021/01/11 09:48:33;;;;;;;54.67;31.50;;;2.70;92.70;;;;;;5096248;28;20069;-76
2021/01/11 09:50:59;;;;;;;52.78;29.90;;;2.70;92.70;;;;;;5077870;28;20032;-76
2021/01/11 09:53:24;;;;;;;59.90;31.95;;;2.80;92.70;;;;;;5094718;28;20520;-76
2021/01/11 09:55:50;;;;;;;56.00;31.45;;;2.80;92.70;;;;;;5094567;28;20081;-76
2021/01/11 09:58:16;;;;;;;54.22;30.90;;;2.80;92.70;;;;;;5094531;28;20055;-76
2021/01/11 10:00:42;;;;;;;55.60;29.77;;;2.80;92.70;;;;;;5094583;28;20111;-76
2021/01/11 10:03:08;;;;;;;55.03;31.10;;;2.80;92.70;;;;;;5094728;28;20024;-76
2021/01/11 10:05:34;;;;;;;53.83;30.13;;;2.80;92.60;;;;;;5096438;28;20028;-76
2021/01/11 10:08:00;;;;;;;53.92;30.45;;;2.80;92.60;;;;;;5094825;28;20031;-76
2021/01/11 10:10:26;;;;;;;60.17;30.90;;;2.90;92.70;;;;;;5096107;28;20031;-76
2021/01/11 10:12:52;;;;;;;50.22;29.08;;;2.80;92.60;;;;;;5096212;28;20049;-76
2021/01/11 10:15:18;;;;;;;49.70;29.55;;;2.90;92.90;;;;;;5078006;28;20032;-76
2021/01/11 10:17:43;;;;;;;46.92;26.90;;;2.90;92.60;;;;;;5094852;28;20036;-76
2021/01/11 10:20:10;;;;;;;49.92;28.17;;;2.90;92.60;;;;;;5077997;28;20499;-76
2021/01/11 10:22:36;;;;;;;44.60;27.42;;;3.00;92.60;;;;;;5095411;28;20374;-76
2021/01/11 10:25:03;;;;;;;45.85;25.85;;;3.00;92.50;;;;;;5094194;28;20028;-76
2021/01/11 10:27:28;;;;;;;48.78;26.33;;;3.00;92.50;;;;;;5093565;28;20103;-76
2021/01/11 10:29:54;;;;;;;46.58;27.13;;;3.00;92.50;;;;;;5073578;28;20123;-76
2021/01/11 10:32:20;;;;;;;40.20;26.35;;;3.10;92.50;;;;;;5089671;28;20036;-76
2021/01/11 10:34:46;;;;;;;50.15;27.20;;;3.10;92.40;;;;;;5094453;28;20138;-76
2021/01/11 10:37:11;;;;;;;42.80;26.52;;;3.10;92.40;;;;;;5095717;28;20394;-76
2021/01/11 10:39:37;;;;;;;40.45;25.75;;;3.10;92.40;;;;;;5095676;28;20062;-76
2021/01/11 10:42:03;;;;;;;43.83;27.02;;;3.10;92.30;;;;;;5077571;28;20124;-76
2021/01/11 10:44:29;;;;;;;45.58;25.35;;;3.10;92.70;;;;;;5094220;28;20033;-76
2021/01/11 10:46:58;;;;;;;41.78;24.92;;;3.10;92.40;;;;;;5095768;28;20036;-76
2021/01/11 10:49:25;;;;;;;36.20;22.70;;;3.20;92.40;;;;;;5094648;28;20031;-76
2021/01/11 10:51:50;;;;;;;42.78;24.65;;;3.20;92.60;;;;;;5095557;28;20574;-76
2021/01/11 10:54:16;;;;;;;40.60;25.23;;;3.20;92.30;;;;;;5095799;28;20033;-76
2021/01/11 10:56:42;;;;;;;40.75;23.05;;;3.30;92.30;;;;;;5095788;28;20482;-76
2021/01/11 10:59:09;;;;;;;40.15;23.05;;;3.40;92.30;;;;;;5095529;28;20052;-76
2021/01/11 11:01:35;;;;;;;38.63;23.58;;;3.40;92.20;;;;;;5094114;28;20511;-76
2021/01/11 11:04:00;;;;;;;37.58;22.73;;;3.40;92.20;;;;;;5093873;28;20028;-76
2021/01/11 11:06:26;;;;;;;36.28;23.25;;;3.40;92.20;;;;;;5077375;28;20028;-76
2021/01/11 11:08:54;;;;;;;36.15;21.95;;;3.40;92.10;;;;;;5094050;28;20055;-76
2021/01/11 11:11:21;;;;;;;38.38;21.42;;;3.40;92.20;;;;;;5094001;28;20123;-76
2021/01/11 11:13:47;;;;;;;33.30;21.00;;;3.50;92.20;;;;;;5094121;28;20032;-76
2021/01/11 11:16:13;;;;;;;36.75;21.15;;;3.40;92.10;;;;;;5093899;28;20039;-76
2021/01/11 11:18:39;;;;;;;32.47;20.60;;;3.50;92.10;;;;;;5094811;28;20052;-76
2021/01/11 11:21:09;;;;;;;34.22;21.08;;;3.50;92.10;;;;;;5094800;28;20360;-76
2021/01/11 11:23:35;;;;;;;35.53;20.88;;;3.50;92.10;;;;;;5094573;28;20101;-76
2021/01/11 11:26:02;;;;;;;33.03;20.92;;;3.60;92.00;;;;;;5095019;28;20028;-76
2021/01/11 11:28:29;;;;;;;33.10;20.33;;;3.60;92.00;;;;;;5093782;28;20020;-76
2021/01/11 11:30:55;;;;;;;33.38;21.42;;;3.60;91.90;;;;;;5093853;28;20040;-76
2021/01/11 11:33:22;;;;;;;35.78;21.75;;;3.70;91.90;;;;;;5093246;28;20032;-76
2021/01/11 11:35:48;;;;;;;31.50;20.73;;;3.70;91.90;;;;;;5093891;28;20073;-76
2021/01/11 11:38:14;;;;;;;31.92;20.33;;;3.70;91.90;;;;;;5093616;28;20115;-76
2021/01/11 11:40:41;;;;;;;30.50;19.10;;;3.70;91.90;;;;;;5076607;28;20032;-76
2021/01/11 11:43:07;;;;;;;32.88;18.92;;;3.70;91.80;;;;;;5110984;28;20028;-76
2021/01/11 11:45:33;;;;;;;26.75;18.50;;;3.70;91.80;;;;;;5100476;28;20358;-76
2021/01/11 11:47:59;;;;;;;30.33;19.25;;;3.80;91.80;;;;;;5093095;28;20028;-76
2021/01/11 11:50:25;;;;;;;31.58;18.95;;;3.80;91.80;;;;;;5093281;28;20035;-76
2021/01/11 11:52:51;;;;;;;37.80;20.88;;;3.80;91.80;;;;;;5075863;28;20032;-76
2021/01/11 11:55:17;;;;;;;32.20;20.25;;;3.80;91.70;;;;;;5093145;28;20028;-76
2021/01/11 11:57:43;;;;;;;33.50;20.05;;;3.80;91.80;;;;;;5093012;28;20115;-76
2021/01/11 12:00:11;;;;;;;29.05;18.42;;;3.80;91.80;;;;;;5093094;28;20439;-76
2021/01/11 12:02:43;;;;;;;31.90;18.85;;;3.90;91.90;;;;;;5076158;28;20039;-76
2021/01/11 12:05:14;;;;;;;29.40;17.30;;;3.90;91.90;;;;;;5093011;28;20020;-76
2021/01/11 12:07:40;;;;;;;31.38;18.88;;;3.90;91.90;;;;;;5094194;28;20107;-76
2021/01/11 12:10:08;;;;;;;29.75;18.80;;;3.90;91.90;;;;;;5092877;28;20383;-75
2021/01/11 12:12:33;;;;;;;28.52;18.08;;;3.90;91.80;;;;;;5094191;28;20024;-76
2021/01/11 12:15:01;;;;;;;28.98;18.70;;;3.90;91.80;;;;;;5072170;28;20553;-76
2021/01/11 12:17:27;;;;;;;31.45;18.33;;;3.90;91.80;;;;;;5072050;28;20678;-75
2021/01/11 12:19:53;;;;;;;29.25;18.27;;;3.90;91.70;;;;;;5073612;28;20028;-76
2021/01/11 12:22:18;;;;;;;26.52;17.40;;;4.00;91.80;;;;;;5074399;28;20045;-76
2021/01/11 12:24:45;;;;;;;28.38;17.48;;;4.00;91.80;;;;;;5093518;28;20040;-76
2021/01/11 12:27:10;;;;;;;29.40;17.70;;;4.00;91.80;;;;;;5092188;28;20389;-75
2021/01/11 12:29:36;;;;;;;29.55;16.80;;;4.00;91.80;;;;;;5091885;28;20558;-76
2021/01/11 12:32:09;;;;;;;26.40;16.80;;;4.10;91.80;;;;;;5074951;28;20074;-76
2021/01/11 12:34:44;;;;;;;27.42;17.58;;;4.10;91.80;;;;;;5092715;28;20032;-76
2021/01/11 12:37:14;;;;;;;34.03;20.35;;;4.10;91.80;;;;;;5091414;28;20071;-76
2021/01/11 12:39:40;;;;;;;28.50;18.48;;;4.20;91.80;;;;;;5093535;28;20032;-76
2021/01/11 12:42:10;;;;;;;26.35;18.08;;;4.10;91.80;;;;;;5093290;28;20016;-76
2021/01/11 12:44:36;;;;;;;27.90;17.27;;;4.20;91.80;;;;;;5076077;28;20028;-76